Time;durP1;ratioP1;P1;durP2;ratioP2;P2;SDS_P1;SDS_P2;PMS_P1;PMS_P2;Temp;Humidity;BMP_temperature;BMP_pressure;BME280_temperature;BME280_humidity;BME280_pressure;Samples;Min_cycle;Max_cycle;Signal;HPM_P1;HPM_P2
2023/12/24 00:01:25;;;;;;;9.60;1.60;;;;;;;;;;5073506;28;20020;-30
2023/12/24 00:03:50;;;;;;;7.90;1.65;;;;;;;;;;5073660;28;20283;-30
2023/12/24 00:06:15;;;;;;;7.43;1.37;;;;;;;;;;5073888;28;20012;-29
2023/12/24 00:08:40;;;;;;;7.15;1.98;;;;;;;;;;5073838;28;20307;-28
2023/12/24 00:11:05;;;;;;;5.95;1.30;;;;;;;;;;5073340;28;20021;-28
2023/12/24 00:13:31;;;;;;;10.50;1.80;;;;;;;;;;5073513;28;20066;-29
2023/12/24 00:15:57;;;;;;;4.78;1.60;;;;;;;;;;5073314;28;20282;-29
2023/12/24 00:18:22;;;;;;;7.03;1.38;;;;;;;;;;5073958;28;20028;-28
2023/12/24 00:20:47;;;;;;;8.48;1.52;;;;;;;;;;5073552;28;20020;-29
2023/12/24 00:23:12;;;;;;;6.77;1.50;;;;;;;;;;5073402;28;20426;-29
2023/12/24 00:25:38;;;;;;;12.68;1.95;;;;;;;;;;5073541;28;20251;-28
2023/12/24 00:28:04;;;;;;;12.27;1.63;;;;;;;;;;5073461;28;20019;-29
2023/12/24 00:30:29;;;;;;;12.63;1.77;;;;;;;;;;5073586;28;20036;-28
2023/12/24 00:32:55;;;;;;;5.13;1.35;;;;;;;;;;5073319;28;20174;-28
2023/12/24 00:35:21;;;;;;;10.48;1.63;;;;;;;;;;5073182;28;20024;-28
2023/12/24 00:37:46;;;;;;;7.07;1.60;;;;;;;;;;5073843;28;20037;-28
2023/12/24 00:40:11;;;;;;;7.22;1.88;;;;;;;;;;5073659;28;20027;-29
2023/12/24 00:42:37;;;;;;;10.35;1.75;;;;;;;;;;5073806;28;20442;-29
2023/12/24 00:45:02;;;;;;;8.20;1.65;;;;;;;;;;5073451;28;20503;-29
2023/12/24 00:47:27;;;;;;;9.63;1.80;;;;;;;;;;5073665;28;20513;-29
2023/12/24 00:49:52;;;;;;;6.20;1.70;;;;;;;;;;5074198;28;20048;-29
2023/12/24 00:52:17;;;;;;;6.07;1.50;;;;;;;;;;5077460;28;20259;-29
2023/12/24 00:54:43;;;;;;;11.67;2.13;;;;;;;;;;5077883;28;20307;-29
2023/12/24 00:57:08;;;;;;;9.55;2.00;;;;;;;;;;5077355;28;20262;-29
2023/12/24 00:59:33;;;;;;;7.57;1.63;;;;;;;;;;5077094;28;20092;-29
2023/12/24 01:01:58;;;;;;;9.63;1.73;;;;;;;;;;5076915;28;20099;-29
2023/12/24 01:04:23;;;;;;;13.47;2.23;;;;;;;;;;5076788;28;20302;-29
2023/12/24 01:06:49;;;;;;;17.23;2.73;;;;;;;;;;5077457;28;20255;-29
2023/12/24 01:09:14;;;;;;;9.60;1.93;;;;;;;;;;5076788;28;20675;-29
2023/12/24 01:11:42;;;;;;;10.53;1.80;;;;;;;;;;5075423;28;20278;-29
2023/12/24 01:14:07;;;;;;;13.48;1.83;;;;;;;;;;5076775;28;20610;-29
2023/12/24 01:16:38;;;;;;;8.68;1.83;;;;;;;;;;5076684;28;20024;-29
2023/12/24 01:19:03;;;;;;;15.13;2.10;;;;;;;;;;5076938;28;20017;-28
2023/12/24 01:21:28;;;;;;;9.63;2.20;;;;;;;;;;5076463;28;20375;-29
2023/12/24 01:23:53;;;;;;;11.67;1.77;;;;;;;;;;5076618;28;20028;-29
2023/12/24 01:26:18;;;;;;;11.90;2.20;;;;;;;;;;5076758;28;20279;-29
2023/12/24 01:28:44;;;;;;;13.50;2.10;;;;;;;;;;5077010;28;20263;-29
2023/12/24 01:31:09;;;;;;;13.20;2.50;;;;;;;;;;5076443;28;20255;-29
2023/12/24 01:33:34;;;;;;;10.57;1.98;;;;;;;;;;5076364;28;20357;-29
2023/12/24 01:35:59;;;;;;;12.40;2.00;;;;;;;;;;5076869;28;20056;-29
2023/12/24 01:38:24;;;;;;;19.65;2.55;;;;;;;;;;5076228;28;20806;-29
2023/12/24 01:40:50;;;;;;;10.90;2.10;;;;;;;;;;5076418;28;20020;-29
2023/12/24 01:43:16;;;;;;;12.57;2.38;;;;;;;;;;5076499;28;20040;-28
2023/12/24 01:45:41;;;;;;;11.43;2.05;;;;;;;;;;5076449;28;20031;-29
2023/12/24 01:48:07;;;;;;;9.17;2.07;;;;;;;;;;5076078;28;20363;-28
2023/12/24 01:50:32;;;;;;;13.20;2.30;;;;;;;;;;5076003;28;20255;-28
2023/12/24 01:52:57;;;;;;;12.05;2.20;;;;;;;;;;5076330;28;20028;-29
2023/12/24 01:55:23;;;;;;;13.25;2.65;;;;;;;;;;5075924;28;20075;-29
2023/12/24 01:57:48;;;;;;;12.30;2.40;;;;;;;;;;5075951;28;20021;-29
2023/12/24 02:00:13;;;;;;;10.82;2.20;;;;;;;;;;5076146;28;20274;-28
2023/12/24 02:02:39;;;;;;;16.95;2.60;;;;;;;;;;5074588;28;20017;-29
2023/12/24 02:05:04;;;;;;;14.98;2.20;;;;;;;;;;5075770;28;20051;-29
2023/12/24 02:07:31;;;;;;;12.32;2.45;;;;;;;;;;5076046;28;20020;-29
2023/12/24 02:09:57;;;;;;;13.02;2.28;;;;;;;;;;5075965;28;20104;-29
2023/12/24 02:12:22;;;;;;;17.27;2.45;;;;;;;;;;5075565;28;20017;-29
2023/12/24 02:14:47;;;;;;;13.23;2.27;;;;;;;;;;5076183;28;20099;-29
2023/12/24 02:17:13;;;;;;;8.93;2.03;;;;;;;;;;5075553;28;20583;-29
2023/12/24 02:19:38;;;;;;;12.68;2.47;;;;;;;;;;5076059;28;20243;-29
2023/12/24 02:22:04;;;;;;;11.95;2.30;;;;;;;;;;5075701;28;20508;-29
2023/12/24 02:24:29;;;;;;;15.67;2.83;;;;;;;;;;5075974;28;20012;-29
2023/12/24 02:27:01;;;;;;;13.18;2.47;;;;;;;;;;5075394;28;20265;-29
2023/12/24 02:29:27;;;;;;;14.73;2.60;;;;;;;;;;5075380;28;20021;-29
2023/12/24 02:31:58;;;;;;;12.10;2.50;;;;;;;;;;5075301;28;20111;-29
2023/12/24 02:34:24;;;;;;;15.23;2.75;;;;;;;;;;5075519;28;20044;-29
2023/12/24 02:36:50;;;;;;;15.52;2.58;;;;;;;;;;5075199;28;20103;-28
2023/12/24 02:39:16;;;;;;;12.60;2.33;;;;;;;;;;5075356;28;20060;-29
2023/12/24 02:41:41;;;;;;;8.80;2.22;;;;;;;;;;5073764;28;20044;-29
2023/12/24 02:44:06;;;;;;;11.93;2.28;;;;;;;;;;5075693;28;20027;-28
2023/12/24 02:46:31;;;;;;;12.48;2.20;;;;;;;;;;5075052;28;20051;-29
2023/12/24 02:48:56;;;;;;;19.30;2.40;;;;;;;;;;5075570;28;20055;-29
2023/12/24 02:51:22;;;;;;;8.90;2.38;;;;;;;;;;5075183;28;20263;-29
2023/12/24 02:53:47;;;;;;;11.30;2.63;;;;;;;;;;5074834;28;20370;-29
2023/12/24 02:56:12;;;;;;;11.27;2.33;;;;;;;;;;5074829;28;20255;-29
2023/12/24 02:58:37;;;;;;;10.23;2.33;;;;;;;;;;5075337;28;20028;-29
2023/12/24 03:01:02;;;;;;;9.77;2.17;;;;;;;;;;5074165;28;20796;-29
2023/12/24 03:03:28;;;;;;;20.52;2.20;;;;;;;;;;5073963;28;20339;-29
2023/12/24 03:05:53;;;;;;;7.88;2.10;;;;;;;;;;5074204;28;20008;-29
2023/12/24 03:08:18;;;;;;;7.93;2.03;;;;;;;;;;5074141;28;20016;-29
2023/12/24 03:10:43;;;;;;;8.82;2.30;;;;;;;;;;5074130;28;20610;-29
2023/12/24 03:13:08;;;;;;;7.43;2.27;;;;;;;;;;5073837;28;20040;-29
2023/12/24 03:15:33;;;;;;;7.35;1.80;;;;;;;;;;5074275;28;20298;-29
2023/12/24 03:17:59;;;;;;;6.13;1.77;;;;;;;;;;5074681;28;20052;-29
2023/12/24 03:20:24;;;;;;;7.43;1.70;;;;;;;;;;5074486;28;20764;-29
2023/12/24 03:22:49;;;;;;;5.72;1.30;;;;;;;;;;5074213;28;20020;-29
2023/12/24 03:25:14;;;;;;;5.77;1.43;;;;;;;;;;5074446;28;20024;-30
2023/12/24 03:27:39;;;;;;;4.05;1.30;;;;;;;;;;5074387;28;20274;-33
2023/12/24 03:30:05;;;;;;;4.37;1.10;;;;;;;;;;5074004;28;20024;-29
2023/12/24 03:32:30;;;;;;;4.65;1.60;;;;;;;;;;5074548;28;20342;-29
2023/12/24 03:34:55;;;;;;;5.32;1.23;;;;;;;;;;5074208;28;20017;-29
2023/12/24 03:37:21;;;;;;;7.40;1.40;;;;;;;;;;5073937;28;20061;-29
2023/12/24 03:39:46;;;;;;;6.07;1.25;;;;;;;;;;5072938;28;20262;-29
2023/12/24 03:42:11;;;;;;;7.13;1.40;;;;;;;;;;5073928;28;20486;-29
2023/12/24 03:44:36;;;;;;;4.83;1.57;;;;;;;;;;5073878;28;20342;-29
2023/12/24 03:47:01;;;;;;;7.47;1.60;;;;;;;;;;5073810;28;20694;-29
2023/12/24 03:49:27;;;;;;;3.77;1.23;;;;;;;;;;5073934;28;20275;-29
2023/12/24 03:51:52;;;;;;;6.13;1.60;;;;;;;;;;5073786;28;20649;-29
2023/12/24 03:54:21;;;;;;;3.10;1.10;;;;;;;;;;5074294;28;20259;-29
2023/12/24 03:56:47;;;;;;;2.97;1.17;;;;;;;;;;5073764;28;20242;-33
2023/12/24 03:59:12;;;;;;;5.50;1.60;;;;;;;;;;5073616;28;20020;-29
2023/12/24 04:01:37;;;;;;;5.18;1.48;;;;;;;;;;5073542;28;20017;-29
2023/12/24 04:04:02;;;;;;;7.32;1.60;;;;;;;;;;5073752;28;20049;-30
2023/12/24 04:06:28;;;;;;;7.68;1.38;;;;;;;;;;5073686;28;20486;-30
2023/12/24 04:08:53;;;;;;;6.95;1.83;;;;;;;;;;5073849;28;20012;-30
2023/12/24 04:11:19;;;;;;;5.32;1.80;;;;;;;;;;5073741;28;20563;-30
2023/12/24 04:13:44;;;;;;;5.03;1.40;;;;;;;;;;5073567;28;20111;-30
2023/12/24 04:16:10;;;;;;;6.77;1.80;;;;;;;;;;5074082;28;20258;-29
2023/12/24 04:18:35;;;;;;;7.78;1.70;;;;;;;;;;5073766;28;20255;-29
2023/12/24 04:21:01;;;;;;;5.70;1.30;;;;;;;;;;5073623;28;20020;-29
2023/12/24 04:23:26;;;;;;;8.32;1.48;;;;;;;;;;5073538;28;20459;-30
2023/12/24 04:25:51;;;;;;;5.27;1.70;;;;;;;;;;5072646;28;20021;-30
2023/12/24 04:28:16;;;;;;;7.60;1.70;;;;;;;;;;5073509;28;20270;-30
2023/12/24 04:30:41;;;;;;;6.50;1.60;;;;;;;;;;5074006;28;20266;-34
2023/12/24 04:33:07;;;;;;;7.15;1.75;;;;;;;;;;5073845;28;20254;-29
2023/12/24 04:35:32;;;;;;;5.35;1.60;;;;;;;;;;5073308;28;20012;-30
2023/12/24 04:37:57;;;;;;;5.07;1.50;;;;;;;;;;5073927;28;20099;-30
2023/12/24 04:40:23;;;;;;;5.50;1.48;;;;;;;;;;5073281;28;20749;-30
2023/12/24 04:42:48;;;;;;;7.47;1.83;;;;;;;;;;5073829;28;20078;-30
2023/12/24 04:45:13;;;;;;;8.93;2.10;;;;;;;;;;5073532;28;20255;-30
2023/12/24 04:47:38;;;;;;;7.35;1.70;;;;;;;;;;5073470;28;20455;-30
2023/12/24 04:50:04;;;;;;;7.47;1.40;;;;;;;;;;5073227;28;20028;-29
2023/12/24 04:52:35;;;;;;;6.63;1.52;;;;;;;;;;5073847;28;20019;-30
2023/12/24 04:55:00;;;;;;;4.82;1.45;;;;;;;;;;5073142;28;20024;-30
2023/12/24 04:57:25;;;;;;;6.87;1.60;;;;;;;;;;5073144;28;20074;-30
2023/12/24 04:59:50;;;;;;;4.87;1.43;;;;;;;;;;5073086;28;20263;-30
2023/12/24 05:02:15;;;;;;;7.07;1.93;;;;;;;;;;5073564;28;20271;-30
2023/12/24 05:04:41;;;;;;;7.03;1.70;;;;;;;;;;5072896;28;20836;-30
2023/12/24 05:07:06;;;;;;;9.83;1.70;;;;;;;;;;5073649;28;20239;-30
2023/12/24 05:09:31;;;;;;;4.70;1.60;;;;;;;;;;5073565;28;20348;-30
2023/12/24 05:11:56;;;;;;;8.97;1.70;;;;;;;;;;5073263;28;20255;-30
2023/12/24 05:14:21;;;;;;;11.57;1.90;;;;;;;;;;5073530;28;20327;-30
2023/12/24 05:16:46;;;;;;;12.90;1.97;;;;;;;;;;5073523;28;20074;-30
2023/12/24 05:19:12;;;;;;;5.17;1.60;;;;;;;;;;5073198;28;20659;-30
2023/12/24 05:21:37;;;;;;;5.77;1.80;;;;;;;;;;5073313;28;20287;-30
2023/12/24 05:24:02;;;;;;;8.80;1.73;;;;;;;;;;5072921;28;20262;-30
2023/12/24 05:26:27;;;;;;;16.90;2.20;;;;;;;;;;5073079;28;20255;-30
2023/12/24 05:28:53;;;;;;;10.33;2.00;;;;;;;;;;5073360;28;20024;-31
2023/12/24 05:31:18;;;;;;;10.35;2.10;;;;;;;;;;5073250;28;20293;-30
2023/12/24 05:33:43;;;;;;;11.18;2.20;;;;;;;;;;5073303;28;20021;-30
2023/12/24 05:36:11;;;;;;;17.37;2.70;;;;;;;;;;5074110;28;20487;-30
2023/12/24 05:38:37;;;;;;;15.50;2.03;;;;;;;;;;5076254;28;20274;-30
2023/12/24 05:41:02;;;;;;;20.47;3.27;;;;;;;;;;5076251;28;20475;-29
2023/12/24 05:43:27;;;;;;;13.20;2.80;;;;;;;;;;5076825;28;20341;-30
2023/12/24 05:45:52;;;;;;;16.07;2.20;;;;;;;;;;5076770;28;20017;-30
2023/12/24 05:48:17;;;;;;;16.43;2.60;;;;;;;;;;5076214;28;20674;-30
2023/12/24 05:50:42;;;;;;;18.17;2.50;;;;;;;;;;5076087;28;20032;-30
2023/12/24 05:53:08;;;;;;;11.52;2.33;;;;;;;;;;5075979;28;20029;-30
2023/12/24 05:55:33;;;;;;;21.13;3.23;;;;;;;;;;5076643;28;20025;-30
2023/12/24 05:57:58;;;;;;;15.27;3.13;;;;;;;;;;5076023;28;20277;-31
2023/12/24 06:00:23;;;;;;;22.73;2.73;;;;;;;;;;5076394;28;20299;-30
2023/12/24 06:02:49;;;;;;;14.63;2.30;;;;;;;;;;5076204;28;20304;-30
2023/12/24 06:05:14;;;;;;;14.88;3.00;;;;;;;;;;5076135;28;20269;-30
2023/12/24 06:07:40;;;;;;;18.20;2.75;;;;;;;;;;5076179;28;20016;-29
2023/12/24 06:10:05;;;;;;;18.25;3.13;;;;;;;;;;5076361;28;20012;-29
2023/12/24 06:12:30;;;;;;;20.02;2.92;;;;;;;;;;5075624;28;20463;-29
2023/12/24 06:14:57;;;;;;;15.60;1.98;;;;;;;;;;5074496;28;20418;-30
2023/12/24 06:17:22;;;;;;;22.92;3.08;;;;;;;;;;5075970;28;20013;-29
2023/12/24 06:19:47;;;;;;;19.73;2.73;;;;;;;;;;5075564;28;20483;-28
2023/12/24 06:22:12;;;;;;;24.33;3.07;;;;;;;;;;5076036;28;20266;-28
2023/12/24 06:24:37;;;;;;;16.53;2.30;;;;;;;;;;5075525;28;20331;-28
2023/12/24 06:27:02;;;;;;;18.95;2.67;;;;;;;;;;5075468;28;20255;-28
2023/12/24 06:29:28;;;;;;;14.35;2.50;;;;;;;;;;5075967;28;20016;-28
2023/12/24 06:31:56;;;;;;;16.90;2.47;;;;;;;;;;5075421;28;20048;-28
2023/12/24 06:34:21;;;;;;;16.38;2.63;;;;;;;;;;5075289;28;20291;-28
2023/12/24 06:36:46;;;;;;;21.63;3.03;;;;;;;;;;5075308;28;20059;-28
2023/12/24 06:39:11;;;;;;;15.43;2.47;;;;;;;;;;5075245;28;20116;-28
2023/12/24 06:41:37;;;;;;;18.95;3.03;;;;;;;;;;5075437;28;20279;-28
2023/12/24 06:44:02;;;;;;;16.75;2.72;;;;;;;;;;5075100;28;20124;-28
2023/12/24 06:46:27;;;;;;;10.47;2.70;;;;;;;;;;5075130;28;20020;-28
2023/12/24 06:48:52;;;;;;;22.70;3.28;;;;;;;;;;5073846;28;20350;-28
2023/12/24 06:51:18;;;;;;;18.07;2.87;;;;;;;;;;5074505;28;20024;-28
2023/12/24 06:53:43;;;;;;;22.70;2.87;;;;;;;;;;5073783;28;20821;-28
2023/12/24 06:56:08;;;;;;;15.48;3.20;;;;;;;;;;5074164;28;20266;-28
2023/12/24 06:58:33;;;;;;;17.20;2.80;;;;;;;;;;5074432;28;20017;-28
2023/12/24 07:00:58;;;;;;;16.83;2.63;;;;;;;;;;5074257;28;20371;-28
2023/12/24 07:03:24;;;;;;;18.15;2.67;;;;;;;;;;5074656;28;20761;-28
2023/12/24 07:05:49;;;;;;;13.80;2.67;;;;;;;;;;5075007;28;20493;-28
2023/12/24 07:08:14;;;;;;;12.70;2.40;;;;;;;;;;5074908;28;20012;-28
2023/12/24 07:10:39;;;;;;;16.17;2.37;;;;;;;;;;5074585;28;20259;-28
2023/12/24 07:13:04;;;;;;;21.52;2.90;;;;;;;;;;5074469;28;20267;-28
2023/12/24 07:15:31;;;;;;;17.73;2.58;;;;;;;;;;5074584;28;20089;-28
2023/12/24 07:17:56;;;;;;;20.92;3.00;;;;;;;;;;5074495;28;20515;-28
2023/12/24 07:20:21;;;;;;;13.67;2.63;;;;;;;;;;5074595;28;20097;-28
2023/12/24 07:22:46;;;;;;;16.40;3.38;;;;;;;;;;5075158;28;20262;-28
2023/12/24 07:25:12;;;;;;;12.80;2.40;;;;;;;;;;5074282;28;20104;-28
2023/12/24 07:27:37;;;;;;;19.90;2.63;;;;;;;;;;5074611;28;20017;-28
2023/12/24 07:30:03;;;;;;;10.82;2.15;;;;;;;;;;5074477;28;20464;-28
2023/12/24 07:32:28;;;;;;;15.85;2.50;;;;;;;;;;5074156;28;20099;-28
2023/12/24 07:34:55;;;;;;;16.70;3.07;;;;;;;;;;5074725;28;20052;-28
2023/12/24 07:37:20;;;;;;;12.35;2.45;;;;;;;;;;5074084;28;20255;-28
2023/12/24 07:39:45;;;;;;;16.50;2.40;;;;;;;;;;5074604;28;20024;-28
2023/12/24 07:42:11;;;;;;;19.03;2.80;;;;;;;;;;5073937;28;20269;-28
2023/12/24 07:44:37;;;;;;;12.25;2.38;;;;;;;;;;5073999;28;20283;-28
2023/12/24 07:47:02;;;;;;;12.15;2.78;;;;;;;;;;5073978;28;20040;-28
2023/12/24 07:49:27;;;;;;;18.15;2.78;;;;;;;;;;5074498;28;20016;-28
2023/12/24 07:51:52;;;;;;;17.10;2.50;;;;;;;;;;5074068;28;20012;-28
2023/12/24 07:54:17;;;;;;;15.27;3.13;;;;;;;;;;5073761;28;20021;-28
2023/12/24 07:56:43;;;;;;;19.60;2.97;;;;;;;;;;5073837;28;20017;-28
2023/12/24 07:59:08;;;;;;;15.10;2.50;;;;;;;;;;5074297;28;20017;-28
2023/12/24 08:01:33;;;;;;;14.97;2.50;;;;;;;;;;5073681;28;20431;-28
2023/12/24 08:03:58;;;;;;;19.50;2.80;;;;;;;;;;5073752;28;20283;-28
2023/12/24 08:06:23;;;;;;;13.87;2.97;;;;;;;;;;5073658;28;20459;-28
2023/12/24 08:08:48;;;;;;;13.60;2.63;;;;;;;;;;5074209;28;20354;-28
2023/12/24 08:11:14;;;;;;;18.03;2.63;;;;;;;;;;5073524;28;20269;-28
2023/12/24 08:13:39;;;;;;;15.83;3.00;;;;;;;;;;5074065;28;20295;-28
2023/12/24 08:16:04;;;;;;;15.40;2.97;;;;;;;;;;5073614;28;20249;-28
2023/12/24 08:18:29;;;;;;;19.02;3.28;;;;;;;;;;5073749;28;20266;-28
2023/12/24 08:20:54;;;;;;;14.00;3.10;;;;;;;;;;5073506;28;20459;-28
2023/12/24 08:23:20;;;;;;;17.23;3.78;;;;;;;;;;5073436;28;20025;-28
2023/12/24 08:25:45;;;;;;;16.20;3.28;;;;;;;;;;5073472;28;20019;-28
2023/12/24 08:28:10;;;;;;;12.45;3.10;;;;;;;;;;5073688;28;20009;-28
2023/12/24 08:30:36;;;;;;;20.48;3.35;;;;;;;;;;5072196;28;20020;-28
2023/12/24 08:33:01;;;;;;;14.10;2.83;;;;;;;;;;5073363;28;20025;-28
2023/12/24 08:35:26;;;;;;;15.70;3.28;;;;;;;;;;5073607;28;20622;-28
2023/12/24 08:37:51;;;;;;;14.20;3.00;;;;;;;;;;5073384;28;20455;-28
2023/12/24 08:40:17;;;;;;;11.67;2.70;;;;;;;;;;5073796;28;20263;-28
2023/12/24 08:42:42;;;;;;;13.43;2.92;;;;;;;;;;5073570;28;20605;-28
2023/12/24 08:45:08;;;;;;;15.87;3.20;;;;;;;;;;5073218;28;20052;-28
2023/12/24 08:47:33;;;;;;;15.63;3.10;;;;;;;;;;5073601;28;20722;-28
2023/12/24 08:49:59;;;;;;;15.47;3.70;;;;;;;;;;5073283;28;20017;-28
2023/12/24 08:52:25;;;;;;;16.13;3.17;;;;;;;;;;5073758;28;20251;-28
2023/12/24 08:54:50;;;;;;;17.30;3.42;;;;;;;;;;5073508;28;20099;-28
2023/12/24 08:57:15;;;;;;;15.60;3.20;;;;;;;;;;5073453;28;20020;-28
2023/12/24 08:59:40;;;;;;;17.23;3.27;;;;;;;;;;5073698;28;20021;-28
2023/12/24 09:02:05;;;;;;;13.07;3.22;;;;;;;;;;5073319;28;20283;-28
2023/12/24 09:04:31;;;;;;;22.25;4.75;;;;;;;;;;5072969;28;20040;-28
2023/12/24 09:06:56;;;;;;;21.63;3.95;;;;;;;;;;5073330;28;20093;-28
2023/12/24 09:09:21;;;;;;;20.00;3.42;;;;;;;;;;5072916;28;20379;-28
2023/12/24 09:11:47;;;;;;;25.23;4.10;;;;;;;;;;5075773;28;20024;-28
2023/12/24 09:14:12;;;;;;;19.58;3.95;;;;;;;;;;5077114;28;20361;-28
2023/12/24 09:16:37;;;;;;;23.17;4.47;;;;;;;;;;5077083;28;20020;-32
2023/12/24 09:19:03;;;;;;;24.50;4.38;;;;;;;;;;5077058;28;20024;-28
2023/12/24 09:21:28;;;;;;;25.10;4.00;;;;;;;;;;5076658;28;20020;-28
2023/12/24 09:23:54;;;;;;;30.73;4.50;;;;;;;;;;5076643;28;20255;-28
2023/12/24 09:26:20;;;;;;;23.50;4.78;;;;;;;;;;5076860;28;20028;-28
2023/12/24 09:28:45;;;;;;;21.42;3.80;;;;;;;;;;5076625;28;20012;-28
2023/12/24 09:31:10;;;;;;;20.63;4.00;;;;;;;;;;5076796;28;20023;-28
2023/12/24 09:33:35;;;;;;;22.50;4.03;;;;;;;;;;5076777;28;20664;-28
2023/12/24 09:36:07;;;;;;;18.63;3.83;;;;;;;;;;5075254;28;20471;-28
2023/12/24 09:38:32;;;;;;;24.95;4.25;;;;;;;;;;5076589;28;20044;-27
2023/12/24 09:40:57;;;;;;;30.20;4.40;;;;;;;;;;5076257;28;20487;-27
2023/12/24 09:43:24;;;;;;;18.27;4.07;;;;;;;;;;5076529;28;20255;-27
2023/12/24 09:45:49;;;;;;;29.73;4.32;;;;;;;;;;5076559;28;20016;-28
2023/12/24 09:48:15;;;;;;;19.65;4.03;;;;;;;;;;5076234;28;20016;-28
2023/12/24 09:50:40;;;;;;;22.47;4.57;;;;;;;;;;5076211;28;20081;-27
2023/12/24 09:53:06;;;;;;;23.35;3.55;;;;;;;;;;5076450;28;20251;-28
2023/12/24 09:55:31;;;;;;;22.27;4.05;;;;;;;;;;5076154;28;20476;-27
2023/12/24 09:57:56;;;;;;;29.13;4.20;;;;;;;;;;5076631;28;20082;-27
2023/12/24 10:00:22;;;;;;;23.80;3.70;;;;;;;;;;5075724;28;20025;-28
2023/12/24 10:02:47;;;;;;;20.60;3.33;;;;;;;;;;5075334;28;20618;-28
2023/12/24 10:05:14;;;;;;;22.63;3.88;;;;;;;;;;5075316;28;20017;-27
2023/12/24 10:07:39;;;;;;;28.10;4.57;;;;;;;;;;5075750;28;20013;-27
2023/12/24 10:10:07;;;;;;;23.17;3.80;;;;;;;;;;5076205;28;20023;-28
2023/12/24 10:12:32;;;;;;;18.70;3.47;;;;;;;;;;5074684;28;20024;-28
2023/12/24 10:14:58;;;;;;;25.42;4.05;;;;;;;;;;5073601;28;20029;-28
2023/12/24 10:17:30;;;;;;;23.40;4.43;;;;;;;;;;5073807;28;20020;-28
2023/12/24 10:19:56;;;;;;;26.10;4.85;;;;;;;;;;5073578;28;20525;-27
2023/12/24 10:22:23;;;;;;;21.58;3.30;;;;;;;;;;5072154;28;20106;-28
2023/12/24 10:24:48;;;;;;;24.10;4.15;;;;;;;;;;5073398;28;20087;-28
2023/12/24 10:27:15;;;;;;;26.23;4.53;;;;;;;;;;5073830;28;20036;-28
2023/12/24 10:29:41;;;;;;;31.90;4.35;;;;;;;;;;5075392;28;20251;-27
2023/12/24 10:32:06;;;;;;;22.80;3.90;;;;;;;;;;5075314;28;20070;-28
2023/12/24 10:34:33;;;;;;;27.45;4.03;;;;;;;;;;5075423;28;20066;-27
2023/12/24 10:36:59;;;;;;;22.80;4.32;;;;;;;;;;5075503;28;20097;-28
2023/12/24 10:39:25;;;;;;;27.48;4.53;;;;;;;;;;5075434;28;20380;-27
2023/12/24 10:41:51;;;;;;;27.38;3.70;;;;;;;;;;5075309;28;20016;-28
2023/12/24 10:44:16;;;;;;;30.13;4.47;;;;;;;;;;5075104;28;20063;-28
2023/12/24 10:46:42;;;;;;;27.27;4.10;;;;;;;;;;5075308;28;20020;-28
2023/12/24 10:49:07;;;;;;;33.20;4.60;;;;;;;;;;5074931;28;20054;-27
2023/12/24 10:51:33;;;;;;;21.70;3.90;;;;;;;;;;5075506;28;20243;-27
2023/12/24 10:53:59;;;;;;;20.08;3.42;;;;;;;;;;5075051;28;20729;-28
2023/12/24 10:56:27;;;;;;;28.30;3.97;;;;;;;;;;5074727;28;20019;-28
2023/12/24 10:59:16;;;;;;;26.42;3.80;;;;;;;;;;5075039;28;20028;-27
2023/12/24 11:01:45;;;;;;;22.90;3.60;;;;;;;;;;5075025;28;20020;-27
2023/12/24 11:04:10;;;;;;;18.80;3.40;;;;;;;;;;5074374;28;20117;-28
2023/12/24 11:06:39;;;;;;;21.20;3.63;;;;;;;;;;5074560;28;20020;-28
2023/12/24 11:09:29;;;;;;;15.68;3.17;;;;;;;;;;5074735;28;20259;-27
2023/12/24 11:11:55;;;;;;;21.80;3.58;;;;;;;;;;5074316;28;20021;-27
2023/12/24 11:14:39;;;;;;;24.58;3.50;;;;;;;;;;5074271;28;20356;-28
2023/12/24 11:17:08;;;;;;;19.83;3.08;;;;;;;;;;5074591;28;20036;-28
2023/12/24 11:19:35;;;;;;;18.05;3.13;;;;;;;;;;5074562;28;20028;-28
2023/12/24 11:22:04;;;;;;;15.77;3.05;;;;;;;;;;5074114;28;20020;-28
2023/12/24 11:24:30;;;;;;;15.55;2.90;;;;;;;;;;5074297;28;20055;-28
2023/12/24 11:26:55;;;;;;;15.43;2.47;;;;;;;;;;5074143;28;20044;-28
2023/12/24 11:29:38;;;;;;;15.00;2.60;;;;;;;;;;5074641;28;20285;-28
2023/12/24 11:32:22;;;;;;;15.68;2.83;;;;;;;;;;5073959;28;20271;-28
2023/12/24 11:34:47;;;;;;;11.43;3.88;;;;;;;;;;5073686;28;20028;-27
2023/12/24 11:37:24;;;;;;;16.77;2.57;;;;;;;;;;5073986;28;20056;-28
2023/12/24 11:40:19;;;;;;;12.85;3.05;;;;;;;;;;5073980;28;20772;-27
2023/12/24 11:42:46;;;;;;;11.45;2.50;;;;;;;;;;5065329;28;20042;-28
2023/12/24 11:45:29;;;;;;;11.77;2.67;;;;;;;;;;5074235;28;20036;-27
2023/12/24 11:47:55;;;;;;;14.10;2.78;;;;;;;;;;5073595;28;20016;-27
2023/12/24 11:50:20;;;;;;;14.93;2.47;;;;;;;;;;5072341;28;20020;-28
2023/12/24 11:52:46;;;;;;;14.10;2.60;;;;;;;;;;5073998;28;20104;-27
2023/12/24 11:55:15;;;;;;;16.77;2.85;;;;;;;;;;5074132;28;20044;-27
2023/12/24 11:57:41;;;;;;;17.17;3.13;;;;;;;;;;5074136;28;20020;-27
2023/12/24 12:00:11;;;;;;;20.88;3.55;;;;;;;;;;5073495;28;20016;-27
2023/12/24 12:02:37;;;;;;;17.55;3.28;;;;;;;;;;5073313;28;20111;-27
2023/12/24 12:05:02;;;;;;;21.30;3.38;;;;;;;;;;5073410;28;20079;-27
2023/12/24 12:07:27;;;;;;;16.98;3.55;;;;;;;;;;5073430;28;20028;-27
2023/12/24 12:09:52;;;;;;;22.40;3.30;;;;;;;;;;5074018;28;20066;-27
2023/12/24 12:12:17;;;;;;;22.27;3.70;;;;;;;;;;5073595;28;20246;-28
2023/12/24 12:14:43;;;;;;;17.80;3.27;;;;;;;;;;5073676;28;20401;-27
2023/12/24 12:17:08;;;;;;;22.40;3.63;;;;;;;;;;5073420;28;20602;-27
2023/12/24 12:19:33;;;;;;;16.80;3.43;;;;;;;;;;5073968;28;20063;-28
2023/12/24 12:21:58;;;;;;;19.08;3.45;;;;;;;;;;5073279;28;20270;-27
2023/12/24 12:24:26;;;;;;;21.05;3.65;;;;;;;;;;5073360;28;20590;-28
2023/12/24 12:26:51;;;;;;;19.10;4.13;;;;;;;;;;5073617;28;20062;-27
2023/12/24 12:29:16;;;;;;;32.97;4.00;;;;;;;;;;5073556;28;20091;-27
2023/12/24 12:31:41;;;;;;;22.87;3.47;;;;;;;;;;5073194;28;20300;-27
2023/12/24 12:34:07;;;;;;;22.77;3.83;;;;;;;;;;5073575;28;20255;-27
2023/12/24 12:36:32;;;;;;;24.77;4.37;;;;;;;;;;5073305;28;20035;-27
2023/12/24 12:38:57;;;;;;;19.67;3.28;;;;;;;;;;5073636;28;20594;-27
2023/12/24 12:41:23;;;;;;;18.80;3.40;;;;;;;;;;5073081;28;20460;-27
2023/12/24 12:43:48;;;;;;;21.85;3.80;;;;;;;;;;5073305;28;20254;-27
2023/12/24 12:46:13;;;;;;;20.70;3.70;;;;;;;;;;5074840;28;20486;-27
2023/12/24 12:48:40;;;;;;;21.97;3.67;;;;;;;;;;5077745;28;20258;-28
2023/12/24 12:51:05;;;;;;;25.75;4.05;;;;;;;;;;5077113;28;20247;-27
2023/12/24 12:53:30;;;;;;;29.10;4.47;;;;;;;;;;5077195;28;20081;-28
2023/12/24 12:56:00;;;;;;;24.20;3.87;;;;;;;;;;5077639;28;20025;-27
2023/12/24 12:58:25;;;;;;;21.17;3.85;;;;;;;;;;5077588;28;20254;-27
2023/12/24 13:00:56;;;;;;;22.07;3.20;;;;;;;;;;5076929;28;20016;-28
2023/12/24 13:03:22;;;;;;;19.92;3.53;;;;;;;;;;5077091;28;20397;-27
2023/12/24 13:05:47;;;;;;;20.38;3.55;;;;;;;;;;5076865;28;20021;-27
2023/12/24 13:08:13;;;;;;;21.60;3.67;;;;;;;;;;5076882;28;20225;-28
2023/12/24 13:10:39;;;;;;;23.70;3.88;;;;;;;;;;5077061;28;20042;-27
2023/12/24 13:13:10;;;;;;;14.43;2.78;;;;;;;;;;5076910;28;20012;-27
2023/12/24 13:15:37;;;;;;;17.77;3.10;;;;;;;;;;5076972;28;20112;-27
2023/12/24 13:18:15;;;;;;;22.23;3.30;;;;;;;;;;5076927;28;20040;-27
2023/12/24 13:20:41;;;;;;;19.58;3.63;;;;;;;;;;5077000;28;20025;-28
2023/12/24 13:23:08;;;;;;;24.85;3.85;;;;;;;;;;5076596;28;20410;-27
2023/12/24 13:25:33;;;;;;;14.43;3.50;;;;;;;;;;5077219;28;20095;-28
2023/12/24 13:27:58;;;;;;;20.07;3.53;;;;;;;;;;5076524;28;20048;-27
2023/12/24 13:30:23;;;;;;;15.07;3.17;;;;;;;;;;5076868;28;20012;-27
2023/12/24 13:32:48;;;;;;;15.25;2.90;;;;;;;;;;5075145;28;20286;-28
2023/12/24 13:35:14;;;;;;;16.13;2.80;;;;;;;;;;5076166;28;20510;-28
2023/12/24 13:37:39;;;;;;;23.00;3.20;;;;;;;;;;5076750;28;20270;-27
2023/12/24 13:40:04;;;;;;;15.57;2.80;;;;;;;;;;5076850;28;20009;-27
2023/12/24 13:42:29;;;;;;;17.10;3.33;;;;;;;;;;5075935;28;20079;-27
2023/12/24 13:44:54;;;;;;;13.57;3.17;;;;;;;;;;5076041;28;20012;-27
2023/12/24 13:47:19;;;;;;;18.30;3.37;;;;;;;;;;5075915;28;20342;-27
2023/12/24 13:49:45;;;;;;;16.13;3.20;;;;;;;;;;5076354;28;20602;-27
2023/12/24 13:52:10;;;;;;;16.23;3.43;;;;;;;;;;5076292;28;20269;-27
2023/12/24 13:54:36;;;;;;;16.60;3.23;;;;;;;;;;5076552;28;20289;-27
2023/12/24 13:57:01;;;;;;;13.23;2.70;;;;;;;;;;5074763;28;20069;-27
2023/12/24 13:59:26;;;;;;;16.83;2.95;;;;;;;;;;5076205;28;20036;-27
2023/12/24 14:01:52;;;;;;;16.40;3.10;;;;;;;;;;5076244;28;20024;-28
2023/12/24 14:04:17;;;;;;;22.08;3.42;;;;;;;;;;5075642;28;20347;-27
2023/12/24 14:06:42;;;;;;;18.75;3.17;;;;;;;;;;5076037;28;20009;-27
2023/12/24 14:09:08;;;;;;;17.30;3.40;;;;;;;;;;5075608;28;20100;-28
2023/12/24 14:11:33;;;;;;;16.23;3.45;;;;;;;;;;5075654;28;20258;-28
2023/12/24 14:13:58;;;;;;;17.48;3.00;;;;;;;;;;5075817;28;20074;-27
2023/12/24 14:16:23;;;;;;;15.30;3.20;;;;;;;;;;5076088;28;20095;-27
2023/12/24 14:18:53;;;;;;;18.97;3.30;;;;;;;;;;5076170;28;20254;-27
2023/12/24 14:21:18;;;;;;;17.70;3.72;;;;;;;;;;5075511;28;20020;-27
2023/12/24 14:23:44;;;;;;;18.50;3.63;;;;;;;;;;5076060;28;20024;-27
2023/12/24 14:26:09;;;;;;;20.05;3.70;;;;;;;;;;5075567;28;20048;-28